Terminal Aerodrome Forecast
Issued by NWS Springfield, MO

Home | Current Version | Previous Version | Text Only | Print | Product List | Glossary On
Versions: 1 2 3 4 5 6 7 8 9 10 11 12 13 14
149
FTUS43 KSGF 121125
TAFSGF
TAF
KSGF 121125Z 1212/1312 31005KT P6SM SCT250
     FM121400 35010G16KT P6SM SCT035
     FM130000 36007KT P6SM SCT250
     FM131000 02009KT P6SM BKN100=

USA.gov is the U.S. government's official web portal to all federal, state and local government web resources and services.